createdAt,value
2018-04-10T00:04:05.900Z,21.27
2018-04-10T00:08:56.964Z,21.00
2018-04-10T00:13:47.992Z,21.33
2018-04-10T00:18:39.036Z,22.67
2018-04-10T00:23:30.072Z,22.67
2018-04-10T00:28:21.955Z,23.13
2018-04-10T00:33:12.963Z,24.07
2018-04-10T00:38:04.021Z,24.10
2018-04-10T00:42:55.045Z,24.30
2018-04-10T00:47:46.351Z,23.90
2018-04-10T00:52:37.394Z,23.77
2018-04-10T00:57:28.420Z,24.17
2018-04-10T01:02:19.429Z,24.43
2018-04-10T01:07:10.451Z,24.90
2018-04-10T01:12:01.499Z,26.03
2018-04-10T01:16:52.558Z,25.43
2018-04-10T01:21:44.313Z,26.00
2018-04-10T01:26:35.391Z,25.53
2018-04-10T01:31:26.414Z,24.77
2018-04-10T01:36:17.463Z,25.60
2018-04-10T01:41:09.219Z,25.07
2018-04-10T01:46:01.001Z,24.90
2018-04-10T01:50:52.121Z,25.27
2018-04-10T01:55:43.138Z,26.93
2018-04-10T02:00:34.166Z,27.70
2018-04-10T02:05:25.195Z,28.50
2018-04-10T02:10:16.266Z,27.10
2018-04-10T02:15:08.076Z,26.97
2018-04-10T02:19:59.082Z,27.37
2018-04-10T02:24:50.109Z,27.90
2018-04-10T02:29:41.124Z,29.17
2018-04-10T02:34:32.170Z,28.57
2018-04-10T02:39:23.196Z,29.10
2018-04-10T02:44:14.225Z,28.60
2018-04-10T02:49:05.989Z,28.00
2018-04-10T02:53:57.088Z,28.17
2018-04-10T02:58:48.179Z,28.23
2018-04-10T03:03:39.197Z,28.67
2018-04-10T03:08:30.229Z,29.93
2018-04-10T03:13:21.260Z,31.80
2018-04-10T03:18:12.507Z,31.60
2018-04-10T03:23:03.506Z,32.83
2018-04-10T03:27:54.587Z,31.40
2018-04-10T03:32:46.414Z,30.03
2018-04-10T03:37:37.475Z,30.87
2018-04-10T03:42:28.516Z,32.23
2018-04-10T03:47:19.563Z,31.93
2018-04-10T03:52:10.600Z,31.27
2018-04-10T03:57:01.710Z,31.97
2018-04-10T04:01:52.772Z,31.97
2018-04-10T04:06:44.610Z,32.50
2018-04-10T04:11:35.646Z,32.20
2018-04-10T04:16:46.107Z,32.77
2018-04-10T04:21:56.192Z,32.60
2018-04-10T04:26:47.947Z,33.90
2018-04-10T04:31:38.991Z,33.67
2018-04-10T04:36:30.016Z,35.07
2018-04-10T04:41:21.104Z,34.80
2018-04-10T04:46:12.974Z,35.37
2018-04-10T04:51:04.236Z,31.87
2018-04-10T04:55:55.283Z,31.53
2018-04-10T05:00:46.308Z,30.80
2018-04-10T05:05:37.421Z,32.07
2018-04-10T05:10:28.488Z,30.57
2018-04-10T05:15:19.554Z,30.63
2018-04-10T05:20:10.627Z,29.93
2018-04-10T05:25:02.471Z,31.67
2018-04-10T05:29:54.315Z,31.70
2018-04-10T05:34:45.313Z,31.37
2018-04-10T05:39:36.415Z,30.43
2018-04-10T05:44:27.466Z,30.20
2018-04-10T05:49:19.327Z,29.70
2018-04-10T05:54:11.091Z,28.83
2018-04-10T05:59:02.132Z,28.93
2018-04-10T06:03:53.177Z,28.50
2018-04-10T06:08:44.296Z,28.20
2018-04-10T06:13:35.350Z,29.43
2018-04-10T06:18:27.372Z,28.10
2018-04-10T06:23:18.415Z,28.30
2018-04-10T06:28:09.447Z,28.50
2018-04-10T06:33:01.204Z,27.70
2018-04-10T06:37:53.001Z,28.13
2018-04-10T06:42:44.039Z,28.07
2018-04-10T06:47:35.195Z,26.90
2018-04-10T06:52:26.219Z,27.60
2018-04-10T06:57:17.377Z,26.73
2018-04-10T07:02:08.415Z,26.83
2018-04-10T07:06:59.455Z,26.60
2018-04-10T07:11:50.575Z,25.83
2018-04-10T07:16:41.639Z,25.73
2018-04-10T07:21:32.784Z,25.27
2018-04-10T07:26:23.852Z,25.33
2018-04-10T07:31:15.000Z,25.03
2018-04-10T07:36:06.783Z,25.60
2018-04-10T07:40:57.876Z,25.30
2018-04-10T07:45:48.951Z,24.93
2018-04-10T07:50:39.987Z,23.97
2018-04-10T07:55:31.008Z,25.77
2018-04-10T08:00:22.043Z,25.80
2018-04-10T08:05:20.158Z,25.87
2018-04-10T08:10:11.967Z,25.30
2018-04-10T08:15:04.480Z,24.67
2018-04-10T08:19:55.546Z,25.23
2018-04-10T08:24:46.571Z,24.37
2018-04-10T08:29:37.755Z,24.60
2018-04-10T08:34:29.047Z,24.27
2018-04-10T08:39:20.935Z,24.03
2018-04-10T08:44:12.016Z,24.97
2018-04-10T08:49:03.787Z,22.20
2018-04-10T08:53:54.875Z,23.23
2018-04-10T08:58:46.648Z,23.60
2018-04-10T09:03:37.783Z,23.43
2018-04-10T09:08:28.796Z,21.90
2018-04-10T09:13:19.920Z,22.43
2018-04-10T09:18:10.951Z,21.70
2018-04-10T09:23:02.016Z,22.20
2018-04-10T09:27:53.822Z,20.47
2018-04-10T09:32:45.739Z,21.87
2018-04-10T09:37:36.892Z,21.63
2018-04-10T09:42:28.011Z,21.20
2018-04-10T09:47:19.108Z,20.63
2018-04-10T09:52:10.887Z,18.40
2018-04-10T09:57:01.908Z,19.93
2018-04-10T10:01:53.093Z,19.27
2018-04-10T10:06:44.876Z,19.67
2018-04-10T10:16:44.052Z,18.00
2018-04-10T10:21:35.127Z,16.80
2018-04-10T10:26:26.159Z,18.40
2018-04-10T10:31:17.223Z,19.67
2018-04-10T10:36:08.412Z,17.90
2018-04-10T10:40:59.486Z,16.90
2018-04-10T10:45:51.290Z,17.57
2018-04-10T10:50:42.427Z,16.20
2018-04-10T10:55:33.495Z,18.27
2018-04-10T11:00:24.590Z,19.20
2018-04-10T11:05:15.627Z,16.37
2018-04-10T11:10:07.443Z,17.87
2018-04-10T11:14:58.467Z,16.77
2018-04-10T11:19:49.563Z,16.83
2018-04-10T11:24:40.588Z,15.77
2018-04-10T11:29:31.685Z,15.53
2018-04-10T11:34:22.792Z,15.77
2018-04-10T11:39:14.558Z,15.23
2018-04-10T11:44:05.600Z,15.27
2018-04-10T11:48:56.601Z,14.87
2018-04-10T11:53:47.768Z,13.43
2018-04-10T11:58:38.796Z,14.67
2018-04-10T12:03:29.925Z,13.30
2018-04-10T12:08:20.995Z,12.93
2018-04-10T12:13:12.049Z,11.87
2018-04-10T12:18:03.187Z,12.23
2018-04-10T12:22:54.976Z,11.83
2018-04-10T12:27:46.743Z,13.90
2018-04-10T12:32:37.903Z,12.77
2018-04-10T12:37:29.094Z,12.63
2018-04-10T12:42:20.167Z,12.20
2018-04-10T12:47:11.283Z,11.87
2018-04-10T12:52:02.359Z,10.03
2018-04-10T12:56:53.382Z,11.40
2018-04-10T13:01:44.389Z,10.80
2018-04-10T13:06:35.423Z,9.57
2018-04-10T13:11:26.440Z,8.60
2018-04-10T13:16:17.515Z,7.83
2018-04-10T13:21:08.551Z,8.93
2018-04-10T13:25:59.560Z,11.47
2018-04-10T13:30:50.591Z,10.63
2018-04-10T13:35:41.619Z,9.23
2018-04-10T13:40:32.704Z,13.60
2018-04-10T13:45:26.492Z,9.47
2018-04-10T13:50:17.819Z,11.10
2018-04-10T13:55:08.917Z,12.33
2018-04-10T14:00:00.667Z,13.50
2018-04-10T14:04:52.620Z,12.50
2018-04-10T14:09:43.648Z,13.67
2018-04-10T14:14:34.710Z,14.47
2018-04-10T14:19:25.748Z,12.53
2018-04-10T14:24:16.788Z,13.47
2018-04-10T14:29:08.541Z,13.27
2018-04-10T14:34:00.359Z,13.07
2018-04-10T14:38:52.141Z,12.50
2018-04-10T14:43:43.254Z,13.57
2018-04-10T14:48:35.060Z,13.10
2018-04-10T14:53:26.247Z,12.07
2018-04-10T14:58:17.279Z,11.90
2018-04-10T15:03:08.433Z,12.63
2018-04-10T15:08:00.204Z,12.30
2018-04-10T15:12:52.047Z,12.93
2018-04-10T15:17:43.825Z,12.03
2018-04-10T15:22:34.867Z,12.47
2018-04-10T15:27:25.931Z,12.77
2018-04-10T15:32:17.900Z,13.30
2018-04-10T15:37:09.237Z,12.90
2018-04-10T15:42:00.267Z,12.50
2018-04-10T15:46:51.287Z,12.93
2018-04-10T15:51:42.320Z,11.47
2018-04-10T15:56:33.535Z,11.27
2018-04-10T16:01:24.572Z,11.30
2018-04-10T16:06:15.605Z,10.73
2018-04-10T16:11:06.639Z,10.50
2018-04-10T16:15:57.711Z,10.17
2018-04-10T16:20:49.608Z,9.17
2018-04-10T16:25:40.763Z,9.23
2018-04-10T16:30:31.780Z,9.47
2018-04-10T16:35:22.839Z,10.30
2018-04-10T16:40:14.058Z,10.10
2018-04-10T16:45:05.256Z,10.73
2018-04-10T16:49:56.418Z,9.55
2018-04-10T16:54:47.607Z,9.97
2018-04-10T16:59:38.721Z,9.07
2018-04-10T17:04:29.863Z,8.90
2018-04-10T17:09:20.915Z,8.20
2018-04-10T17:14:12.052Z,7.83
2018-04-10T17:19:03.231Z,7.60
2018-04-10T17:23:54.355Z,7.27
2018-04-10T17:28:50.384Z,7.50
2018-04-10T17:33:41.533Z,6.43
2018-04-10T17:38:32.619Z,6.67
2018-04-10T17:43:24.387Z,5.30
2018-04-10T17:48:15.526Z,5.23
2018-04-10T17:53:06.552Z,12.63
2018-04-10T17:57:57.656Z,16.37
2018-04-10T18:02:48.778Z,17.20
2018-04-10T18:07:39.807Z,17.30
2018-04-10T18:12:30.921Z,17.47
2018-04-10T18:17:21.951Z,18.13
2018-04-10T18:22:13.105Z,18.63
2018-04-10T18:27:04.229Z,17.83
2018-04-10T18:31:55.243Z,17.10
2018-04-10T18:36:46.251Z,16.73
2018-04-10T18:41:37.321Z,17.07
2018-04-10T18:46:28.443Z,16.10
2018-04-10T18:51:19.578Z,16.27
2018-04-10T18:56:10.855Z,17.00
2018-04-10T19:01:01.894Z,17.10
2018-04-10T19:05:53.015Z,16.47
2018-04-10T19:10:44.130Z,17.30
2018-04-10T19:15:35.361Z,17.27
2018-04-10T19:20:26.463Z,17.80
2018-04-10T19:25:18.240Z,20.10
2018-04-10T19:30:09.343Z,18.47
2018-04-10T19:35:01.124Z,16.73
2018-04-10T19:39:52.181Z,16.07
2018-04-10T19:44:43.289Z,16.90
2018-04-10T19:49:34.319Z,18.97
2018-04-10T19:54:25.449Z,17.87
2018-04-10T19:59:16.523Z,18.45
2018-04-10T20:04:08.425Z,17.87
2018-04-10T20:08:59.485Z,16.77
2018-04-10T20:13:51.430Z,17.47
2018-04-10T20:18:42.472Z,17.57
2018-04-10T20:23:34.273Z,18.20
2018-04-10T20:28:25.291Z,17.47
2018-04-10T20:33:16.335Z,18.00
2018-04-10T20:38:07.607Z,18.40
2018-04-10T20:42:59.500Z,18.73
2018-04-10T20:47:50.668Z,18.57
2018-04-10T20:52:42.054Z,19.07
2018-04-10T20:57:33.099Z,20.87
2018-04-10T21:02:25.169Z,19.00
2018-04-10T21:07:16.203Z,18.53
2018-04-10T21:12:07.246Z,17.90
2018-04-10T21:16:58.440Z,19.20
2018-04-10T21:21:49.700Z,19.97
2018-04-10T21:26:40.763Z,28.53
2018-04-10T21:31:32.639Z,31.10
2018-04-10T21:36:23.729Z,25.80
2018-04-10T21:41:15.500Z,22.50
2018-04-10T21:46:06.518Z,22.80
2018-04-10T21:50:57.547Z,21.63
2018-04-10T21:55:48.647Z,21.63
2018-04-10T22:00:40.449Z,21.13
2018-04-10T22:05:31.522Z,21.23
2018-04-10T22:10:22.624Z,20.50
2018-04-10T22:15:14.500Z,21.47
2018-04-10T22:20:05.511Z,20.77
2018-04-10T22:24:56.527Z,21.43
2018-04-10T22:29:48.300Z,20.03
2018-04-10T22:34:39.309Z,19.27
2018-04-10T22:39:30.316Z,19.40
2018-04-10T22:44:21.337Z,20.50
2018-04-10T22:49:12.369Z,19.60
2018-04-10T22:54:03.395Z,21.07
2018-04-10T22:58:54.762Z,19.57
2018-04-10T23:03:46.561Z,19.77
2018-04-10T23:08:37.665Z,20.27
2018-04-10T23:13:28.728Z,21.07
2018-04-10T23:18:19.847Z,21.03
2018-04-10T23:23:10.883Z,22.50
2018-04-10T23:28:02.093Z,21.73
2018-04-10T23:32:53.158Z,21.10
2018-04-10T23:37:44.208Z,21.83
2018-04-10T23:42:35.331Z,21.80
2018-04-10T23:47:26.362Z,22.77
2018-04-10T23:52:18.184Z,21.70
2018-04-10T23:57:09.219Z,23.17
